createdAt,value
2022-09-23T00:01:11.689Z,101768.78
2022-09-23T00:06:30.532Z,101757.06
2022-09-23T00:08:56.972Z,101757.34
2022-09-23T00:11:28.418Z,101753.22
2022-09-23T00:13:57.669Z,101756.78
2022-09-23T00:16:28.547Z,101763.06
2022-09-23T00:18:55.324Z,101754.06
2022-09-23T00:21:23.196Z,101764.16
2022-09-23T00:23:49.642Z,101757.06
2022-09-23T00:26:18.947Z,101745.28
2022-09-23T00:28:46.335Z,101755.16
2022-09-23T00:31:24.579Z,101756.22
2022-09-23T00:33:56.683Z,101746.41
2022-09-23T00:36:23.771Z,101741.75
2022-09-23T00:38:50.235Z,101740.94
2022-09-23T00:41:16.988Z,101738.47
2022-09-23T00:43:53.535Z,101736.53
2022-09-23T00:46:35.050Z,101748.56
2022-09-23T00:49:04.101Z,101739.56
2022-09-23T00:51:40.144Z,101737.94
2022-09-23T00:54:07.685Z,101739.00
2022-09-23T00:56:36.951Z,101736.56
2022-09-23T00:59:04.920Z,101734.66
2022-09-23T01:01:31.453Z,101732.72
2022-09-23T01:03:58.960Z,101738.19
2022-09-23T01:06:26.000Z,101739.28
2022-09-23T01:08:52.880Z,101735.75
2022-09-23T01:11:28.541Z,101734.94
2022-09-23T01:14:07.314Z,101734.09
2022-09-23T01:16:53.665Z,101731.63
2022-09-23T01:19:43.501Z,101732.75
2022-09-23T01:22:22.626Z,101730.81
2022-09-23T01:24:57.951Z,101723.72
2022-09-23T01:27:51.664Z,101721.00
2022-09-23T01:30:30.474Z,101717.47
2022-09-23T01:33:21.711Z,101715.78
2022-09-23T01:35:57.343Z,101715.78
2022-09-23T01:38:35.020Z,101714.97
2022-09-23T01:41:16.464Z,101706.78
2022-09-23T01:44:06.873Z,101698.59
2022-09-23T01:46:42.921Z,101708.72
2022-09-23T01:49:19.269Z,101703.25
2022-09-23T01:51:51.067Z,101698.06
2022-09-23T01:54:28.883Z,101694.78
2022-09-23T01:57:07.890Z,101698.31
2022-09-23T01:59:50.233Z,101700.25
2022-09-23T02:02:29.150Z,101690.69
2022-09-23T02:05:05.344Z,101689.59
2022-09-23T02:07:45.000Z,101688.78
2022-09-23T02:10:20.501Z,101688.78
2022-09-23T02:12:52.230Z,101692.59
2022-09-23T02:15:23.620Z,101690.16
2022-09-23T02:17:55.782Z,101680.34
2022-09-23T02:20:27.103Z,101683.06
2022-09-23T02:23:12.392Z,101680.34
2022-09-23T02:25:47.773Z,101677.59
2022-09-23T02:28:31.603Z,101680.34
2022-09-23T02:31:11.823Z,101676.75
2022-09-23T02:33:43.651Z,101676.75
2022-09-23T02:36:26.043Z,101683.06
2022-09-23T02:39:00.342Z,101666.13
2022-09-23T02:41:50.067Z,101666.13
2022-09-23T02:44:19.817Z,101669.13
2022-09-23T02:46:46.987Z,101663.69
2022-09-23T02:49:16.814Z,101659.28
2022-09-23T02:51:43.876Z,101659.28
2022-09-23T02:54:14.917Z,101654.94
2022-09-23T02:56:42.020Z,101654.94
2022-09-23T02:59:09.757Z,101653.31
2022-09-23T03:02:16.700Z,101646.75
2022-09-23T03:05:05.713Z,101648.09
2022-09-23T03:07:38.580Z,101645.38
2022-09-23T03:10:13.328Z,101645.38
2022-09-23T03:12:53.017Z,101657.13
2022-09-23T03:15:40.862Z,101647.28
2022-09-23T03:18:25.480Z,101653.03
2022-09-23T03:20:59.187Z,101646.75
2022-09-23T03:23:33.012Z,101640.47
2022-09-23T03:26:05.376Z,101636.09
2022-09-23T03:28:35.168Z,101645.09
2022-09-23T03:33:51.132Z,101638.81
2022-09-23T03:36:42.785Z,101635.28
2022-09-23T03:39:14.957Z,101632.84
2022-09-23T03:41:50.880Z,101642.94
2022-09-23T03:44:19.611Z,101631.19
2022-09-23T03:46:49.988Z,101629.53
2022-09-23T03:49:17.876Z,101626.81
2022-09-23T03:51:44.904Z,101626.56
2022-09-23T03:54:11.797Z,101615.91
2022-09-23T03:56:38.341Z,101607.72
2022-09-23T03:59:04.880Z,101606.91
2022-09-23T04:01:31.378Z,101614.28
2022-09-23T04:03:57.860Z,101602.53
2022-09-23T04:06:24.403Z,101607.19
2022-09-23T04:08:50.908Z,101595.47
2022-09-23T04:11:17.403Z,101600.06
2022-09-23T04:13:43.836Z,101601.16
2022-09-23T04:16:10.391Z,101591.06
2022-09-23T04:18:36.972Z,101591.34
2022-09-23T04:21:03.554Z,101594.91
2022-09-23T04:23:30.026Z,101598.44
2022-09-23T04:25:56.537Z,101604.19
2022-09-23T04:28:23.234Z,101601.47
2022-09-23T04:30:49.946Z,101596.25
2022-09-23T04:33:17.447Z,101588.88
2022-09-23T04:35:44.091Z,101594.34
2022-09-23T04:38:12.623Z,101594.34
2022-09-23T04:40:39.540Z,101593.53
2022-09-23T04:43:07.841Z,101593.53
2022-09-23T04:48:16.141Z,101605.53
2022-09-23T04:50:42.787Z,101602.00
2022-09-23T04:53:09.361Z,101595.72
2022-09-23T04:55:36.329Z,101598.47
2022-09-23T04:58:02.790Z,101595.72
2022-09-23T05:00:29.488Z,101606.66
2022-09-23T05:02:56.057Z,101598.72
2022-09-23T05:05:24.195Z,101600.63
2022-09-23T05:07:51.217Z,101595.97
2022-09-23T05:10:18.142Z,101605.28
2022-09-23T05:12:44.621Z,101605.28
2022-09-23T05:15:11.129Z,101602.00
2022-09-23T05:17:37.603Z,101603.91
2022-09-23T05:20:04.934Z,101598.44
2022-09-23T05:22:31.643Z,101610.19
2022-09-23T05:25:00.261Z,101608.53
2022-09-23T05:27:27.109Z,101603.91
2022-09-23T05:29:53.654Z,101615.66
2022-09-23T05:32:21.281Z,101605.00
2022-09-23T05:34:47.860Z,101607.72
2022-09-23T05:37:14.334Z,101611.28
2022-09-23T05:39:40.814Z,101609.94
2022-09-23T05:42:07.352Z,101604.47
2022-09-23T05:44:33.839Z,101613.47
2022-09-23T05:47:00.442Z,101609.09
2022-09-23T05:49:48.245Z,101609.94
2022-09-23T05:52:13.554Z,101608.00
2022-09-23T05:54:40.847Z,101609.94
2022-09-23T05:57:07.294Z,101600.91
2022-09-23T05:59:33.822Z,101607.44
2022-09-23T06:02:01.232Z,101603.91
2022-09-23T06:04:27.757Z,101603.91
2022-09-23T06:06:54.231Z,101608.56
2022-09-23T06:09:20.699Z,101612.09
2022-09-23T06:11:47.254Z,101605.81
2022-09-23T06:14:14.905Z,101605.81
2022-09-23T06:16:41.643Z,101607.75
2022-09-23T06:19:08.230Z,101605.00
2022-09-23T06:21:37.087Z,101593.28
2022-09-23T06:24:04.163Z,101595.19
2022-09-23T06:26:33.754Z,101591.63
2022-09-23T06:29:02.596Z,101596.28
2022-09-23T06:31:29.707Z,101582.63
2022-09-23T06:34:08.375Z,101590.00
2022-09-23T06:36:43.923Z,101596.28
2022-09-23T06:39:12.267Z,101593.53
2022-09-23T06:41:39.335Z,101584.53
2022-09-23T06:44:06.122Z,101585.34
2022-09-23T06:46:32.792Z,101588.09
2022-09-23T06:48:59.403Z,101588.09
2022-09-23T06:51:25.863Z,101588.91
2022-09-23T06:53:52.559Z,101589.19
2022-09-23T06:56:21.017Z,101593.53
2022-09-23T06:58:47.912Z,101590.00
2022-09-23T07:01:16.995Z,101584.53
2022-09-23T07:03:45.801Z,101591.09
2022-09-23T07:06:12.436Z,101589.19
2022-09-23T07:08:42.255Z,101593.81
2022-09-23T07:11:13.390Z,101591.91
2022-09-23T07:13:41.239Z,101595.47
2022-09-23T07:16:08.921Z,101603.13
2022-09-23T07:18:37.518Z,101597.38
2022-09-23T07:21:13.642Z,101590.81
2022-09-23T07:23:40.370Z,101597.09
2022-09-23T07:26:07.972Z,101590.53
2022-09-23T07:28:37.061Z,101578.81
2022-09-23T07:31:06.688Z,101582.91
2022-09-23T07:33:35.176Z,101582.63
2022-09-23T07:36:06.822Z,101584.00
2022-09-23T07:38:33.331Z,101593.81
2022-09-23T07:41:08.921Z,101580.97
2022-09-23T07:43:35.816Z,101577.44
2022-09-23T07:46:08.230Z,101580.72
2022-09-23T07:48:35.991Z,101578.81
2022-09-23T07:51:35.518Z,101594.38
2022-09-23T07:54:05.312Z,101593.56
2022-09-23T07:56:31.801Z,101587.00
2022-09-23T07:59:02.228Z,101576.91
2022-09-23T08:01:31.642Z,101588.63
2022-09-23T08:04:03.959Z,101594.09
2022-09-23T08:06:30.731Z,101593.28
2022-09-23T08:08:58.903Z,101595.72
2022-09-23T08:11:26.551Z,101605.81
2022-09-23T08:13:53.916Z,101592.16
2022-09-23T08:16:21.876Z,101599.53
2022-09-23T08:18:48.516Z,101588.63
2022-09-23T08:21:22.511Z,101595.72
2022-09-23T08:23:49.863Z,101597.63
2022-09-23T08:26:21.600Z,101597.63
2022-09-23T08:28:49.065Z,101607.47
2022-09-23T08:31:15.751Z,101603.09
2022-09-23T08:33:42.250Z,101594.91
2022-09-23T08:36:08.739Z,101598.44
2022-09-23T08:38:35.289Z,101601.16
2022-09-23T08:41:07.980Z,101600.34
2022-09-23T08:43:37.053Z,101606.63
2022-09-23T08:46:10.747Z,101606.63
2022-09-23T08:48:44.337Z,101598.44
2022-09-23T08:51:29.404Z,101608.53
2022-09-23T08:53:55.949Z,101612.94
2022-09-23T08:56:24.109Z,101605.00
2022-09-23T08:59:00.123Z,101608.28
2022-09-23T09:02:06.074Z,101612.94
2022-09-23T09:04:35.555Z,101608.53
2022-09-23T09:07:34.661Z,101610.75
2022-09-23T09:09:57.559Z,101603.38
2022-09-23T09:12:34.051Z,101605.00
2022-09-23T09:15:14.650Z,101610.19
2022-09-23T09:18:11.220Z,101609.91
2022-09-23T09:21:02.784Z,101609.63
2022-09-23T09:23:48.221Z,101608.56
2022-09-23T09:26:21.154Z,101605.53
2022-09-23T09:29:17.276Z,101603.91
2022-09-23T09:31:50.689Z,101599.78
2022-09-23T09:34:23.193Z,101592.72
2022-09-23T09:37:08.205Z,101591.59
2022-09-23T09:39:36.321Z,101600.66
2022-09-23T09:42:05.980Z,101590.53
2022-09-23T09:44:40.542Z,101596.00
2022-09-23T09:47:41.606Z,101590.53
2022-09-23T09:50:21.610Z,101594.09
2022-09-23T09:52:48.698Z,101590.25
2022-09-23T09:55:24.297Z,101589.44
2022-09-23T09:58:01.792Z,101585.91
2022-09-23T10:00:28.399Z,101584.78
2022-09-23T10:03:01.302Z,101575.78
2022-09-23T10:05:52.475Z,101574.97
2022-09-23T10:08:33.516Z,101585.91
2022-09-23T10:11:15.113Z,101580.97
2022-09-23T10:14:03.114Z,101570.34
2022-09-23T10:16:34.368Z,101579.34
2022-09-23T10:19:03.041Z,101573.88
2022-09-23T10:21:35.909Z,101575.78
2022-09-23T10:24:07.021Z,101573.88
2022-09-23T10:26:50.471Z,101576.59
2022-09-23T10:29:23.258Z,101569.22
2022-09-23T10:31:53.199Z,101571.97
2022-09-23T10:34:26.976Z,101574.69
2022-09-23T10:37:11.302Z,101567.59
2022-09-23T10:39:56.886Z,101566.78
2022-09-23T10:43:14.899Z,101571.16
2022-09-23T10:46:07.032Z,101571.97
2022-09-23T10:48:52.284Z,101567.59
2022-09-23T10:51:39.593Z,101557.50
2022-09-23T10:54:27.768Z,101564.06
2022-09-23T10:57:42.821Z,101562.44
2022-09-23T11:00:24.936Z,101557.50
2022-09-23T11:03:15.973Z,101559.41
2022-09-23T11:06:13.150Z,101562.16
2022-09-23T11:09:04.545Z,101567.31
2022-09-23T11:12:06.705Z,101566.25
2022-09-23T11:15:02.553Z,101566.25
2022-09-23T11:17:55.362Z,101552.59
2022-09-23T11:20:35.416Z,101556.13
2022-09-23T11:23:21.496Z,101559.97
2022-09-23T11:25:56.476Z,101565.44
2022-09-23T11:28:57.064Z,101557.78
2022-09-23T11:31:33.048Z,101551.78
2022-09-23T11:34:17.906Z,101559.69
2022-09-23T11:36:52.095Z,101558.06
2022-09-23T11:39:31.069Z,101555.03
2022-09-23T11:42:00.401Z,101553.94
2022-09-23T11:44:33.705Z,101545.75
2022-09-23T11:47:08.689Z,101542.75
2022-09-23T11:49:39.359Z,101533.75
2022-09-23T11:52:21.790Z,101523.66
2022-09-23T11:55:01.546Z,101529.63
2022-09-23T11:57:47.246Z,101526.66
2022-09-23T12:00:21.575Z,101532.91
2022-09-23T12:03:05.645Z,101532.91
2022-09-23T12:05:48.209Z,101532.09
2022-09-23T12:08:32.817Z,101532.91
2022-09-23T12:11:22.980Z,101530.19
2022-09-23T12:13:56.400Z,101527.19
2022-09-23T12:16:34.825Z,101529.66
2022-09-23T12:19:20.470Z,101523.91
2022-09-23T12:21:52.797Z,101520.34
2022-09-23T12:24:51.108Z,101523.09
2022-09-23T12:27:24.859Z,101512.97
2022-09-23T12:29:58.793Z,101512.16
2022-09-23T12:32:26.721Z,101513.78
2022-09-23T12:34:54.601Z,101506.41
2022-09-23T12:37:32.342Z,101504.50
2022-09-23T12:40:01.849Z,101510.81
2022-09-23T12:42:31.110Z,101501.50
2022-09-23T12:45:25.518Z,101500.69
2022-09-23T12:47:51.965Z,101511.31
2022-09-23T12:50:52.491Z,101498.47
2022-09-23T12:53:34.336Z,101498.22
2022-09-23T12:56:13.888Z,101497.13
2022-09-23T12:58:43.375Z,101503.69
2022-09-23T13:01:17.159Z,101499.84
2022-09-23T13:04:11.066Z,101499.84
2022-09-23T13:06:56.568Z,101491.94
2022-09-23T13:09:27.124Z,101485.38
2022-09-23T13:11:59.917Z,101494.69
2022-09-23T13:14:29.149Z,101495.19
2022-09-23T13:16:58.429Z,101486.19
2022-09-23T13:19:28.159Z,101481.56
2022-09-23T13:21:54.809Z,101473.91
2022-09-23T13:24:29.000Z,101472.00
2022-09-23T13:27:05.826Z,101474.72
2022-09-23T13:29:42.272Z,101472.81
2022-09-23T13:32:20.300Z,101484.53
2022-09-23T13:34:58.029Z,101468.16
2022-09-23T13:37:47.591Z,101473.63
2022-09-23T13:40:31.068Z,101475.25
2022-09-23T13:43:04.987Z,101479.91
2022-09-23T13:45:36.184Z,101467.06
2022-09-23T13:48:07.380Z,101467.59
2022-09-23T13:50:38.486Z,101458.59
2022-09-23T13:53:10.413Z,101468.41
2022-09-23T13:55:39.262Z,101465.69
2022-09-23T13:58:20.417Z,101462.97
2022-09-23T14:00:47.996Z,101461.03
2022-09-23T14:03:23.351Z,101455.56
2022-09-23T14:05:51.692Z,101453.94
2022-09-23T14:08:19.303Z,101453.41
2022-09-23T14:10:46.834Z,101448.19
2022-09-23T14:13:25.377Z,101438.94
2022-09-23T14:15:55.082Z,101438.09
2022-09-23T14:18:40.345Z,101438.94
2022-09-23T14:21:26.268Z,101432.38
2022-09-23T14:23:52.857Z,101439.75
2022-09-23T14:26:20.297Z,101429.34
2022-09-23T14:28:47.506Z,101433.19
2022-09-23T14:31:14.278Z,101422.25
2022-09-23T14:33:42.536Z,101440.56
2022-09-23T14:36:34.501Z,101420.34
2022-09-23T14:39:07.049Z,101434.81
2022-09-23T14:41:42.709Z,101429.09
2022-09-23T14:44:22.644Z,101421.16
2022-09-23T14:46:59.088Z,101407.50
2022-09-23T14:49:26.501Z,101406.38
2022-09-23T14:51:57.754Z,101414.88
2022-09-23T14:54:39.311Z,101408.31
2022-09-23T14:57:26.030Z,101406.38
2022-09-23T15:00:14.284Z,101411.84
2022-09-23T15:02:56.715Z,101402.84
2022-09-23T15:05:59.794Z,101402.59
2022-09-23T15:08:27.580Z,101411.03
2022-09-23T15:10:54.873Z,101406.13
2022-09-23T15:13:27.208Z,101397.38
2022-09-23T15:15:55.262Z,101398.19
2022-09-23T15:18:25.471Z,101398.19
2022-09-23T15:20:55.386Z,101402.59
2022-09-23T15:23:40.900Z,101405.31
2022-09-23T15:26:13.978Z,101405.31
2022-09-23T15:28:40.855Z,101401.78
2022-09-23T15:31:10.846Z,101397.94
2022-09-23T15:33:37.331Z,101413.22
2022-09-23T15:36:04.648Z,101398.75
2022-09-23T15:38:31.150Z,101401.47
2022-09-23T15:40:57.752Z,101396.31
2022-09-23T15:43:26.703Z,101389.75
2022-09-23T15:46:05.156Z,101383.19
2022-09-23T15:48:38.671Z,101387.00
2022-09-23T15:51:08.125Z,101391.38
2022-09-23T15:53:34.878Z,101398.75
2022-09-23T15:56:01.571Z,101396.03
2022-09-23T15:58:28.121Z,101401.47
2022-09-23T16:00:57.109Z,101403.41
2022-09-23T16:03:25.770Z,101400.66
2022-09-23T16:05:52.432Z,101396.81
2022-09-23T16:08:23.304Z,101396.03
2022-09-23T16:10:53.554Z,101390.56
2022-09-23T16:13:20.119Z,101387.00
2022-09-23T16:15:46.624Z,101387.00
2022-09-23T16:18:13.620Z,101389.75
2022-09-23T16:20:43.077Z,101390.84
2022-09-23T16:23:34.681Z,101379.63
2022-09-23T16:26:13.854Z,101380.75
2022-09-23T16:28:40.499Z,101386.19
2022-09-23T16:31:07.302Z,101381.56
2022-09-23T16:33:33.848Z,101379.63
2022-09-23T16:36:03.253Z,101391.38
2022-09-23T16:38:30.215Z,101379.94
2022-09-23T16:41:00.482Z,101371.44
2022-09-23T16:43:31.569Z,101365.97
2022-09-23T16:45:58.699Z,101378.81
2022-09-23T16:48:25.593Z,101369.81
2022-09-23T16:50:53.985Z,101369.81
2022-09-23T16:53:21.077Z,101370.09
2022-09-23T16:55:47.533Z,101370.09
2022-09-23T16:58:14.016Z,101364.63
2022-09-23T17:00:59.388Z,101359.97
2022-09-23T17:03:41.223Z,101361.88
2022-09-23T17:06:12.926Z,101360.81
2022-09-23T17:08:42.935Z,101361.88
2022-09-23T17:11:14.355Z,101365.44
2022-09-23T17:13:42.295Z,101360.25
2022-09-23T17:16:11.807Z,101375.53
2022-09-23T17:18:40.970Z,101369.28
2022-09-23T17:21:08.289Z,101363.81
2022-09-23T17:23:35.879Z,101365.72
2022-09-23T17:26:03.072Z,101363.00
2022-09-23T17:28:29.622Z,101362.19
2022-09-23T17:31:07.144Z,101360.25
2022-09-23T17:33:37.684Z,101360.25
2022-09-23T17:36:09.321Z,101359.47
2022-09-23T17:38:36.219Z,101360.56
2022-09-23T17:41:02.833Z,101360.56
2022-09-23T17:43:31.426Z,101359.75
2022-09-23T17:46:07.940Z,101364.38
2022-09-23T17:48:36.603Z,101359.75
2022-09-23T17:51:10.024Z,101360.81
2022-09-23T17:53:38.884Z,101363.56
2022-09-23T17:56:19.019Z,101358.91
2022-09-23T17:58:47.271Z,101378.03
2022-09-23T18:01:16.921Z,101379.44
2022-09-23T18:03:43.702Z,101370.13
2022-09-23T18:06:15.613Z,101379.44
2022-09-23T18:08:44.765Z,101378.59
2022-09-23T18:11:23.690Z,101392.25
2022-09-23T18:13:55.752Z,101398.53
2022-09-23T18:16:24.916Z,101388.69
2022-09-23T18:18:55.399Z,101392.25
2022-09-23T18:21:22.390Z,101387.63
2022-09-23T18:23:49.327Z,101392.25
2022-09-23T18:26:22.035Z,101399.59
2022-09-23T18:28:49.794Z,101392.25
2022-09-23T18:31:16.498Z,101388.69
2022-09-23T18:33:43.092Z,101392.53
2022-09-23T18:36:09.987Z,101401.53
2022-09-23T18:38:36.591Z,101393.34
2022-09-23T18:41:03.200Z,101396.66
2022-09-23T18:43:41.392Z,101393.63
2022-09-23T18:46:13.403Z,101396.34
2022-09-23T18:48:59.131Z,101396.34
2022-09-23T18:51:29.033Z,101393.63
2022-09-23T18:54:00.019Z,101392.81
2022-09-23T18:56:37.084Z,101392.81
2022-09-23T18:59:07.447Z,101393.63
2022-09-23T19:01:34.064Z,101392.28
2022-09-23T19:04:04.635Z,101387.63
2022-09-23T19:06:34.910Z,101381.34
2022-09-23T19:09:01.959Z,101386.81
2022-09-23T19:11:28.498Z,101382.47
2022-09-23T19:13:56.760Z,101383.28
2022-09-23T19:16:24.043Z,101380.84
2022-09-23T19:18:50.920Z,101376.19
2022-09-23T19:21:20.637Z,101381.66
2022-09-23T19:23:55.350Z,101371.81
2022-09-23T19:26:25.830Z,101383.56
2022-09-23T19:28:56.207Z,101386.56
2022-09-23T19:31:43.387Z,101380.03
2022-09-23T19:34:18.648Z,101383.81
2022-09-23T19:36:47.364Z,101380.28
2022-09-23T19:39:17.996Z,101378.38
2022-09-23T19:41:45.090Z,101378.38
2022-09-23T19:44:12.202Z,101372.09
2022-09-23T19:46:41.860Z,101370.47
2022-09-23T19:49:08.427Z,101366.13
2022-09-23T19:51:35.305Z,101371.28
2022-09-23T19:54:03.466Z,101364.19
2022-09-23T19:56:31.922Z,101369.66
2022-09-23T19:58:59.327Z,101369.66
2022-09-23T20:01:27.279Z,101372.66
2022-09-23T20:03:54.110Z,101362.53
2022-09-23T20:06:21.683Z,101363.66
2022-09-23T20:08:49.125Z,101361.72
2022-09-23T20:11:18.665Z,101368.00
2022-09-23T20:13:50.079Z,101356.28
2022-09-23T20:16:19.229Z,101353.03
2022-09-23T20:18:46.793Z,101353.84
2022-09-23T20:21:15.623Z,101353.03
2022-09-23T20:23:42.551Z,101349.19
2022-09-23T20:26:27.618Z,101348.91
2022-09-23T20:28:54.217Z,101343.44
2022-09-23T20:31:22.335Z,101351.63
2022-09-23T20:33:59.459Z,101336.09
2022-09-23T20:36:29.524Z,101347.81
2022-09-23T20:38:59.887Z,101340.44
2022-09-23T20:41:26.923Z,101345.09
2022-09-23T20:43:54.848Z,101339.63
2022-09-23T20:46:24.234Z,101342.34
2022-09-23T20:48:50.890Z,101347.00
2022-09-23T20:51:17.854Z,101337.97
2022-09-23T20:53:44.489Z,101338.81
2022-09-23T20:56:11.426Z,101340.44
2022-09-23T20:58:37.911Z,101337.97
2022-09-23T21:01:10.941Z,101334.44
2022-09-23T21:03:41.595Z,101332.25
2022-09-23T21:06:09.659Z,101335.25
2022-09-23T21:08:37.624Z,101328.16
2022-09-23T21:11:13.318Z,101322.69
2022-09-23T21:13:39.797Z,101321.59
2022-09-23T21:16:09.386Z,101318.06
2022-09-23T21:18:37.469Z,101322.69
2022-09-23T21:21:06.260Z,101327.06
2022-09-23T21:23:35.303Z,101318.88
2022-09-23T21:26:13.111Z,101321.88
2022-09-23T21:28:44.151Z,101321.09
2022-09-23T21:31:35.613Z,101323.81
2022-09-23T21:34:07.311Z,101321.09
2022-09-23T21:36:37.528Z,101312.88
2022-09-23T21:39:05.517Z,101321.09
2022-09-23T21:41:32.843Z,101314.00
2022-09-23T21:44:00.311Z,101322.19
2022-09-23T21:46:28.236Z,101314.00
2022-09-23T21:48:58.717Z,101318.34
2022-09-23T21:51:26.958Z,101310.16
2022-09-23T21:53:55.350Z,101308.53
2022-09-23T21:56:27.386Z,101307.72
2022-09-23T21:58:55.161Z,101308.53
2022-09-23T22:01:24.414Z,101314.00
2022-09-23T22:03:56.140Z,101310.47
2022-09-23T22:06:26.818Z,101303.06
2022-09-23T22:08:58.519Z,101307.72
2022-09-23T22:11:46.201Z,101299.53
2022-09-23T22:14:14.262Z,101295.44
2022-09-23T22:16:41.940Z,101295.16
2022-09-23T22:19:09.624Z,101288.88
2022-09-23T22:21:38.812Z,101288.88
2022-09-23T22:24:08.053Z,101288.88
2022-09-23T22:26:39.864Z,101283.44
2022-09-23T22:29:26.836Z,101290.00
2022-09-23T22:32:12.169Z,101290.00
2022-09-23T22:34:55.648Z,101288.06
2022-09-23T22:37:27.357Z,101290.00
2022-09-23T22:39:54.875Z,101287.25
2022-09-23T22:42:22.532Z,101284.53
2022-09-23T22:44:49.625Z,101285.63
2022-09-23T22:47:17.978Z,101282.06
2022-09-23T22:49:45.654Z,101275.78
2022-09-23T22:52:12.483Z,101274.97
2022-09-23T22:54:39.011Z,101274.97
2022-09-23T22:57:07.546Z,101265.97
2022-09-23T22:59:35.202Z,101272.25
2022-09-23T23:02:07.681Z,101273.06
2022-09-23T23:04:34.461Z,101265.19
2022-09-23T23:07:00.921Z,101260.53
2022-09-23T23:09:27.422Z,101261.34
2022-09-23T23:11:54.182Z,101267.09
2022-09-23T23:14:21.420Z,101263.56
2022-09-23T23:16:48.017Z,101258.09
2022-09-23T23:19:17.137Z,101258.09
2022-09-23T23:21:45.411Z,101260.81
2022-09-23T23:24:17.290Z,101254.53
2022-09-23T23:26:44.559Z,101258.91
2022-09-23T23:29:13.129Z,101265.44
2022-09-23T23:31:39.825Z,101254.81
2022-09-23T23:34:10.960Z,101254.81
2022-09-23T23:36:38.669Z,101249.91
2022-09-23T23:39:05.488Z,101247.44
2022-09-23T23:41:32.057Z,101250.16
2022-09-23T23:44:01.108Z,101252.09
2022-09-23T23:46:29.388Z,101251.28
2022-09-23T23:48:56.968Z,101245.00
2022-09-23T23:51:26.485Z,101249.66
2022-09-23T23:53:54.448Z,101239.56
2022-09-23T23:56:24.545Z,101242.28
2022-09-23T23:58:56.132Z,101242.53
